Stations météo

réclame
Mon MeteoGroup
Beitem, Belgique (6414): Température de l'air & dewpoint: 17.09.2017 23:00:00 - 23.09.2017 23:00:00 (CEST)Beitem, Belgique (6414): Vitesse du vent & gusts: 17.09.2017 23:00:00 - 23.09.2017 23:00:00 (CEST)Beitem, Belgique (6414): Direction du vent: 17.09.2017 23:00:00 - 23.09.2017 23:00:00 (CEST)Beitem, Belgique (6414): reduced air pressure: 17.09.2017 23:00:00 - 23.09.2017 23:00:00 (CEST)Beitem, Belgique (6414): Ensoleillement: 17.09.2017 23:00:00 - 23.09.2017 23:00:00 (CEST)Beitem, Belgique (6414): Quantités de précipitations: 17.09.2017 23:00:00 - 23.09.2017 23:00:00 (CEST)
Date & Time tt [°C] td [°C] ff [km/h] ff [knt] fx [km/h] fx [knt] dd ppp [hPa] sd [min] rr [mm]
23.09.2017 23:00:00 10,4 9,5 4 2 - - E 1022,9 - -
23.09.2017 22:00:00 11,4 10,3 4 2 7 4 E 1022,9 0 0,0
23.09.2017 21:00:00 12,7 11,2 5 3 7 4 ENE 1022,8 0 0,0
23.09.2017 20:00:00 14,0 11,2 4 2 5 3 E 1022,5 7 0,0
23.09.2017 19:00:00 16,7 10,0 5 3 8 4 SE 1022,4 38 0,0
23.09.2017 18:00:00 17,6 9,8 5 3 14 8 SE 1022,5 50 0,0
23.09.2017 17:00:00 18,2 9,9 8 4 16 8 E 1022,7 60 0,0
23.09.2017 16:00:00 18,4 10,1 6 3 16 8 E 1023,2 60 0,0
23.09.2017 15:00:00 18,1 10,0 7 4 16 8 E 1023,7 46 0,0
23.09.2017 14:00:00 18,0 10,4 7 4 16 9 SE 1024,0 56 0,0
23.09.2017 13:00:00 17,0 9,9 8 5 15 8 E 1024,6 60 0,0
23.09.2017 12:00:00 16,4 10,9 7 4 14 8 ESE 1024,8 60 0,0
23.09.2017 11:00:00 15,2 12,5 7 4 11 6 ESE 1024,8 60 0,0
23.09.2017 10:00:00 11,0 10,8 4 2 4 2 E 1024,7 54 0,0
23.09.2017 09:00:00 7,0 7,0 4 2 5 3 ENE 1025,0 3 0,0
23.09.2017 08:00:00 6,2 6,2 4 2 4 2 E 1024,8 0 0,0
23.09.2017 07:00:00 6,2 6,2 0 0 3 2 N 1024,8 0 0,0
23.09.2017 06:00:00 6,7 6,7 4 2 4 2 SSE 1024,6 0 0,0
23.09.2017 05:00:00 6,5 6,5 0 0 3 2 N 1024,7 0 0,0
23.09.2017 04:00:00 7,2 7,2 0 0 3 2 N 1024,9 0 0,0
23.09.2017 03:00:00 7,7 7,7 0 0 3 2 N 1024,9 0 0,0
23.09.2017 02:00:00 7,9 7,9 4 2 6 3 SSW 1024,7 0 0,0
23.09.2017 01:00:00 8,1 8,0 4 2 4 2 SW 1024,6 0 0,0
23.09.2017 00:00:00 8,7 8,6 4 2 5 3 W 1024,7 0 0,0
22.09.2017 23:00:00 9,7 9,2 4 2 5 3 SW 1024,6 0 0,0
22.09.2017 22:00:00 10,9 9,9 5 3 6 3 W 1024,0 0 0,0
22.09.2017 21:00:00 12,2 10,1 5 3 10 6 NNW 1023,5 0 0,0
22.09.2017 20:00:00 14,4 10,7 11 6 16 9 NNW 1023,1 26 0,0
22.09.2017 19:00:00 16,5 10,8 10 5 18 10 NW 1022,6 60 0,0
22.09.2017 18:00:00 17,6 10,6 10 6 22 12 NW 1022,0 60 0,0
22.09.2017 17:00:00 18,0 10,6 13 7 23 13 NW 1021,9 60 0,0
22.09.2017 16:00:00 18,4 10,8 11 6 24 13 NW 1021,8 55 0,0
22.09.2017 15:00:00 18,4 10,9 13 7 22 12 NW 1021,7 39 0,0
22.09.2017 14:00:00 18,0 11,8 18 10 26 14 NNW 1021,9 44 0,0
22.09.2017 13:00:00 17,5 12,9 11 6 25 13 NW 1021,6 48 0,0
22.09.2017 12:00:00 16,8 13,2 11 6 16 9 WNW 1021,5 37 0,0
22.09.2017 11:00:00 15,3 14,2 10 5 17 9 W 1021,2 10 0,0
22.09.2017 10:00:00 14,1 13,8 4 2 8 5 WSW 1020,8 0 0,0
22.09.2017 09:00:00 13,0 12,6 5 3 8 4 SSW 1020,3 0 0,0
22.09.2017 08:00:00 12,6 12,3 7 4 7 4 SSW 1019,9 0 0,0
22.09.2017 07:00:00 13,2 12,9 0 0 8 5 N 1019,5 0 0,2
22.09.2017 06:00:00 12,7 11,9 6 3 8 5 W 1019,6 0 0,1
22.09.2017 05:00:00 12,5 11,2 7 4 9 5 SSW 1019,6 0 0,0
22.09.2017 04:00:00 - - - - - - - - - -
22.09.2017 03:00:00 - - - - - - - - 0 -
22.09.2017 02:00:00 11,5 10,0 4 2 12 7 WSW 1019,5 0 0,0
22.09.2017 01:00:00 12,6 10,2 6 3 10 5 SSE 1019,2 0 0,0
22.09.2017 00:00:00 13,3 10,4 7 4 9 5 SSE 1018,9 0 0,0
21.09.2017 23:00:00 13,8 10,8 5 3 9 5 SSE 1019,0 0 0,0
21.09.2017 22:00:00 14,7 10,7 6 3 10 5 SSE 1018,9 0 0,0
21.09.2017 21:00:00 15,2 10,8 7 4 10 6 SE 1018,6 0 0,0
21.09.2017 20:00:00 16,4 11,1 4 2 12 6 SSE 1018,5 0 0,0
21.09.2017 19:00:00 17,8 10,4 10 5 21 11 S 1018,0 35 0,0
21.09.2017 18:00:00 18,9 10,1 14 8 25 14 S 1017,7 60 0,0
21.09.2017 17:00:00 19,3 9,9 14 8 27 15 S 1017,8 60 0,0
21.09.2017 16:00:00 19,3 9,7 17 9 27 15 S 1017,9 60 0,0
21.09.2017 15:00:00 19,0 9,7 18 10 27 15 S 1018,2 60 0,0
21.09.2017 14:00:00 18,7 10,3 18 10 34 18 S 1019,0 60 0,0
21.09.2017 13:00:00 17,6 10,1 17 9 27 14 S 1019,3 60 0,0
21.09.2017 12:00:00 16,4 10,7 18 10 32 18 S 1019,4 - -
21.09.2017 11:00:00 13,9 10,0 13 7 21 11 S 1019,5 60 0,0
21.09.2017 10:00:00 11,5 9,6 12 7 18 10 S 1019,5 44 0,0
21.09.2017 09:00:00 10,2 9,0 10 5 16 9 S 1019,8 20 0,0
21.09.2017 08:00:00 9,7 8,7 11 6 16 9 S 1019,3 0 0,0
21.09.2017 07:00:00 9,6 8,7 10 5 14 8 S 1019,3 0 0,0
21.09.2017 06:00:00 9,5 8,7 6 3 15 8 S 1019,6 0 0,0
21.09.2017 05:00:00 10,0 8,9 8 5 15 8 SSE 1019,6 0 0,0
21.09.2017 04:00:00 10,6 9,4 8 4 13 7 S 1020,0 0 0,0
21.09.2017 03:00:00 11,4 10,0 6 4 13 7 SSE 1020,3 0 0,0
21.09.2017 02:00:00 11,0 9,7 7 4 12 7 SSE 1020,1 0 0,0
21.09.2017 01:00:00 11,7 10,2 8 4 13 7 SSE 1020,3 0 0,0
21.09.2017 00:00:00 12,0 10,6 7 4 13 7 S 1020,2 0 0,0
20.09.2017 23:00:00 12,8 10,6 6 3 10 5 SE 1020,1 0 0,0
20.09.2017 22:00:00 13,3 11,0 7 4 11 6 SSE 1020,2 0 0,0
20.09.2017 21:00:00 14,0 11,0 7 4 10 6 S 1020,5 0 0,0
20.09.2017 20:00:00 14,9 11,7 7 4 14 8 SSW 1020,1 0 0,0
20.09.2017 19:00:00 15,9 11,5 10 5 21 12 SW 1020,2 14 0,0
20.09.2017 18:00:00 16,5 11,3 15 8 29 15 SW 1020,4 42 0,0
20.09.2017 17:00:00 17,1 11,4 16 9 26 14 SW 1020,8 42 0,0
20.09.2017 16:00:00 16,7 10,8 18 10 30 16 SW 1020,9 6 0,0
20.09.2017 15:00:00 17,7 10,7 16 9 25 13 SW 1021,0 32 0,0
20.09.2017 14:00:00 16,8 11,4 16 9 25 14 SSW 1021,4 27 0,0
20.09.2017 13:00:00 16,4 12,3 16 9 26 14 SSW 1021,6 47 0,0
20.09.2017 12:00:00 15,7 12,6 13 7 22 12 SW 1021,7 60 0,0
20.09.2017 11:00:00 13,5 11,5 13 7 19 10 SSW 1021,9 60 0,0
20.09.2017 10:00:00 11,4 10,1 13 7 18 10 SSW 1021,7 60 0,0
20.09.2017 09:00:00 9,2 8,6 7 4 12 6 S 1022,0 45 0,0
20.09.2017 08:00:00 8,4 7,9 7 4 16 9 SSW 1021,6 0 0,0
20.09.2017 07:00:00 8,8 8,0 13 7 19 11 SSW 1021,4 0 0,0
20.09.2017 06:00:00 8,8 8,0 11 6 16 9 SSW 1021,5 0 0,0
20.09.2017 05:00:00 8,7 8,0 9 5 12 7 SSW 1022,1 0 0,0
20.09.2017 04:00:00 9,1 8,4 8 4 13 7 SSW 1022,1 0 0,0
20.09.2017 03:00:00 9,5 8,7 10 5 14 8 SSW 1022,4 0 0,0
20.09.2017 02:00:00 10,3 9,7 11 6 13 7 SSW 1022,7 0 0,0
20.09.2017 01:00:00 11,2 10,4 8 4 10 5 SSW 1022,7 0 0,0
20.09.2017 00:00:00 12,4 11,0 6 3 9 5 WSW 1022,5 0 0,0
19.09.2017 23:00:00 12,7 11,4 6 3 10 6 WSW 1022,6 0 0,0
19.09.2017 22:00:00 12,7 11,8 5 3 12 7 W 1022,5 0 0,0
19.09.2017 21:00:00 12,9 11,1 8 4 21 12 NW 1022,2 0 0,0
19.09.2017 20:00:00 13,1 11,9 11 6 30 16 NW 1021,9 0 0,0
19.09.2017 19:00:00 14,1 12,4 19 11 34 18 WNW 1021,4 7 0,0
19.09.2017 18:00:00 15,4 11,8 22 12 34 19 WNW 1021,2 50 0,0
19.09.2017 17:00:00 16,8 11,0 18 10 26 14 WNW 1020,6 37 0,0
19.09.2017 16:00:00 16,5 11,2 15 8 22 12 WNW 1020,5 32 0,0
19.09.2017 15:00:00 16,1 10,2 9 5 17 9 WNW 1020,6 28 0,0
19.09.2017 14:00:00 15,4 12,3 11 6 22 12 N 1020,3 20 0,1
19.09.2017 13:00:00 14,2 12,5 13 7 30 16 NW 1020,4 25 0,4
19.09.2017 12:00:00 15,5 11,8 17 9 25 14 NW 1019,9 45 0,0
19.09.2017 11:00:00 14,1 11,9 12 6 26 14 NW 1019,8 38 0,0
19.09.2017 10:00:00 12,6 10,6 14 8 22 12 WNW 1018,9 60 0,0
19.09.2017 09:00:00 10,9 9,9 10 5 18 10 W 1018,3 23 0,0
19.09.2017 08:00:00 10,4 9,7 11 6 16 9 W 1018,3 0 2,4
19.09.2017 07:00:00 10,3 9,9 8 5 15 8 NW 1018,2 0 3,0
19.09.2017 06:00:00 11,0 10,1 12 7 18 10 NNW 1018,1 0 0,8
19.09.2017 05:00:00 10,9 10,2 9 5 15 8 W 1017,4 0 0,0
19.09.2017 04:00:00 11,2 10,4 7 4 15 8 WNW 1017,7 0 0,0
19.09.2017 03:00:00 11,2 10,3 9 5 19 10 W 1017,6 0 1,1
19.09.2017 02:00:00 11,1 10,4 11 6 16 9 W 1017,6 0 1,6
19.09.2017 01:00:00 11,2 10,3 14 8 19 10 W 1017,8 0 0,6
19.09.2017 00:00:00 11,3 10,6 9 5 18 10 WSW 1017,6 0 0,4
18.09.2017 23:00:00 11,5 10,6 7 4 11 6 W 1017,7 0 0,0
18.09.2017 22:00:00 11,5 10,5 7 4 13 7 W 1017,5 0 0,0
18.09.2017 21:00:00 11,9 10,7 9 5 12 7 W 1016,9 0 0,2
18.09.2017 20:00:00 12,7 10,6 7 4 21 11 NW 1016,4 20 0,0
18.09.2017 19:00:00 12,9 11,2 9 5 18 10 W 1015,9 16 0,2
18.09.2017 18:00:00 12,9 11,3 16 9 27 14 WNW 1015,9 20 0,1
18.09.2017 17:00:00 12,4 11,2 14 8 24 13 W 1015,9 3 0,3
18.09.2017 16:00:00 12,4 10,8 10 6 22 12 W 1015,6 0 0,0
18.09.2017 15:00:00 12,1 11,0 12 6 19 11 W 1015,8 0 0,4
18.09.2017 14:00:00 11,5 10,3 11 6 20 11 W 1015,7 0 0,4
18.09.2017 13:00:00 11,5 10,7 12 7 25 14 W 1015,3 0 1,3
18.09.2017 12:00:00 11,9 10,8 11 6 24 13 W 1015,3 0 3,9
18.09.2017 11:00:00 13,0 11,8 11 6 22 12 W 1015,3 12 1,4
18.09.2017 10:00:00 12,7 11,1 12 6 20 11 WSW 1015,0 57 0,0
18.09.2017 09:00:00 10,7 10,1 10 6 16 9 SW 1014,9 46 0,0
18.09.2017 08:00:00 9,6 9,1 7 4 11 6 SW 1014,8 0 0,0
18.09.2017 07:00:00 10,4 9,6 8 5 19 10 W 1014,6 0 0,2
18.09.2017 06:00:00 10,3 9,6 13 7 18 10 W 1014,4 0 0,0
18.09.2017 05:00:00 10,6 10,0 9 5 17 9 WNW 1014,1 0 0,2
18.09.2017 04:00:00 10,9 10,3 11 6 21 12 WNW 1014,1 0 0,7
18.09.2017 03:00:00 10,9 9,9 11 6 16 8 W 1014,5 0 0,0
18.09.2017 02:00:00 10,8 10,4 7 4 16 8 SW 1014,4 0 0,0
18.09.2017 01:00:00 11,6 10,8 9 5 14 8 SW 1014,4 0 1,6
18.09.2017 00:00:00 11,4 10,3 6 3 15 8 WSW 1014,9 0 0,2
17.09.2017 23:00:00 11,7 10,1 8 5 12 6 SSW 1014,6 0 0,0

tt = Température de l'air
td = dewpoint
ff = Vitesse du vent
fx = gusts
dd = Direction du vent
ppp = reduced air pressure
sd = Ensoleillement
rr = Quantités de précipitations

stations d'obs. à proximité